sensor_id;sensor_type;location;lat;lon;timestamp;P1;durP1;ratioP1;P2;durP2;ratioP2
7563;SDS011;3823;53.586;10.040;2023-12-29T00:01:33;7.95;;;2.13;;
7563;SDS011;3823;53.586;10.040;2023-12-29T00:03:59;6.10;;;2.10;;
7563;SDS011;3823;53.586;10.040;2023-12-29T00:06:25;6.03;;;2.42;;
7563;SDS011;3823;53.586;10.040;2023-12-29T00:08:50;6.00;;;2.10;;
7563;SDS011;3823;53.586;10.040;2023-12-29T00:11:17;3.00;;;2.08;;
7563;SDS011;3823;53.586;10.040;2023-12-29T00:13:43;4.93;;;1.85;;
7563;SDS011;3823;53.586;10.040;2023-12-29T00:16:09;6.05;;;2.80;;
7563;SDS011;3823;53.586;10.040;2023-12-29T00:18:36;9.82;;;2.67;;
7563;SDS011;3823;53.586;10.040;2023-12-29T00:21:02;7.70;;;2.40;;
7563;SDS011;3823;53.586;10.040;2023-12-29T00:23:28;7.57;;;2.33;;
7563;SDS011;3823;53.586;10.040;2023-12-29T00:25:54;4.95;;;2.15;;
7563;SDS011;3823;53.586;10.040;2023-12-29T00:28:19;7.38;;;2.45;;
7563;SDS011;3823;53.586;10.040;2023-12-29T00:30:45;10.30;;;3.47;;
7563;SDS011;3823;53.586;10.040;2023-12-29T00:33:10;5.82;;;2.75;;
7563;SDS011;3823;53.586;10.040;2023-12-29T00:35:39;7.25;;;2.70;;
7563;SDS011;3823;53.586;10.040;2023-12-29T00:38:05;4.68;;;2.50;;
7563;SDS011;3823;53.586;10.040;2023-12-29T00:40:31;9.00;;;3.30;;
7563;SDS011;3823;53.586;10.040;2023-12-29T00:42:57;7.60;;;2.58;;
7563;SDS011;3823;53.586;10.040;2023-12-29T00:45:23;4.57;;;2.72;;
7563;SDS011;3823;53.586;10.040;2023-12-29T00:47:48;12.00;;;2.72;;
7563;SDS011;3823;53.586;10.040;2023-12-29T00:50:15;11.77;;;3.72;;
7563;SDS011;3823;53.586;10.040;2023-12-29T00:52:41;6.70;;;3.22;;
7563;SDS011;3823;53.586;10.040;2023-12-29T00:55:07;7.30;;;3.35;;
7563;SDS011;3823;53.586;10.040;2023-12-29T00:57:33;10.55;;;3.13;;
7563;SDS011;3823;53.586;10.040;2023-12-29T00:59:59;15.15;;;4.43;;
7563;SDS011;3823;53.586;10.040;2023-12-29T01:02:25;9.48;;;3.20;;
7563;SDS011;3823;53.586;10.040;2023-12-29T01:04:50;3.15;;;2.55;;
7563;SDS011;3823;53.586;10.040;2023-12-29T01:07:16;8.70;;;2.75;;
7563;SDS011;3823;53.586;10.040;2023-12-29T01:09:42;20.45;;;3.58;;
7563;SDS011;3823;53.586;10.040;2023-12-29T01:12:07;3.13;;;2.40;;
7563;SDS011;3823;53.586;10.040;2023-12-29T01:14:33;8.98;;;2.38;;
7563;SDS011;3823;53.586;10.040;2023-12-29T01:16:59;6.18;;;2.42;;
7563;SDS011;3823;53.586;10.040;2023-12-29T01:19:24;7.55;;;2.05;;
7563;SDS011;3823;53.586;10.040;2023-12-29T01:21:50;4.43;;;2.65;;
7563;SDS011;3823;53.586;10.040;2023-12-29T01:24:15;3.97;;;2.42;;
7563;SDS011;3823;53.586;10.040;2023-12-29T01:26:41;8.65;;;2.70;;
7563;SDS011;3823;53.586;10.040;2023-12-29T01:29:06;10.13;;;3.60;;
7563;SDS011;3823;53.586;10.040;2023-12-29T01:31:32;3.97;;;2.33;;
7563;SDS011;3823;53.586;10.040;2023-12-29T01:33:58;7.13;;;3.08;;
7563;SDS011;3823;53.586;10.040;2023-12-29T01:36:23;10.05;;;2.65;;
7563;SDS011;3823;53.586;10.040;2023-12-29T01:38:49;5.57;;;2.65;;
7563;SDS011;3823;53.586;10.040;2023-12-29T01:41:15;4.60;;;1.92;;
7563;SDS011;3823;53.586;10.040;2023-12-29T01:46:22;5.88;;;2.92;;
7563;SDS011;3823;53.586;10.040;2023-12-29T01:48:48;5.82;;;3.45;;
7563;SDS011;3823;53.586;10.040;2023-12-29T01:51:14;12.15;;;3.58;;
7563;SDS011;3823;53.586;10.040;2023-12-29T01:53:40;5.90;;;3.63;;
7563;SDS011;3823;53.586;10.040;2023-12-29T01:56:06;11.20;;;4.45;;
7563;SDS011;3823;53.586;10.040;2023-12-29T01:58:33;10.95;;;3.13;;
7563;SDS011;3823;53.586;10.040;2023-12-29T02:00:59;10.40;;;3.03;;
7563;SDS011;3823;53.586;10.040;2023-12-29T02:03:27;4.78;;;2.58;;
7563;SDS011;3823;53.586;10.040;2023-12-29T02:05:53;3.97;;;2.42;;
7563;SDS011;3823;53.586;10.040;2023-12-29T02:08:21;4.18;;;2.35;;
7563;SDS011;3823;53.586;10.040;2023-12-29T02:10:47;12.55;;;3.47;;
7563;SDS011;3823;53.586;10.040;2023-12-29T02:13:13;11.07;;;2.83;;
7563;SDS011;3823;53.586;10.040;2023-12-29T02:15:39;2.78;;;2.28;;
7563;SDS011;3823;53.586;10.040;2023-12-29T02:18:06;9.18;;;3.08;;
7563;SDS011;3823;53.586;10.040;2023-12-29T02:20:34;9.23;;;2.92;;
7563;SDS011;3823;53.586;10.040;2023-12-29T02:23:00;7.88;;;2.92;;
7563;SDS011;3823;53.586;10.040;2023-12-29T02:25:27;6.60;;;3.08;;
7563;SDS011;3823;53.586;10.040;2023-12-29T02:27:58;7.82;;;2.47;;
7563;SDS011;3823;53.586;10.040;2023-12-29T02:33:10;9.02;;;2.55;;
7563;SDS011;3823;53.586;10.040;2023-12-29T02:35:39;3.25;;;2.80;;
7563;SDS011;3823;53.586;10.040;2023-12-29T02:38:07;5.85;;;2.25;;
7563;SDS011;3823;53.586;10.040;2023-12-29T02:40:33;9.02;;;2.60;;
7563;SDS011;3823;53.586;10.040;2023-12-29T02:42:59;2.92;;;1.80;;
7563;SDS011;3823;53.586;10.040;2023-12-29T02:45:24;5.45;;;2.28;;
7563;SDS011;3823;53.586;10.040;2023-12-29T02:47:50;6.13;;;2.30;;
7563;SDS011;3823;53.586;10.040;2023-12-29T02:50:16;2.78;;;1.80;;
7563;SDS011;3823;53.586;10.040;2023-12-29T02:52:42;4.88;;;2.40;;
7563;SDS011;3823;53.586;10.040;2023-12-29T02:55:08;5.43;;;1.75;;
7563;SDS011;3823;53.586;10.040;2023-12-29T02:57:33;4.20;;;2.50;;
7563;SDS011;3823;53.586;10.040;2023-12-29T02:59:59;7.43;;;2.28;;
7563;SDS011;3823;53.586;10.040;2023-12-29T03:02:24;7.43;;;2.53;;
7563;SDS011;3823;53.586;10.040;2023-12-29T03:04:50;5.00;;;1.80;;
7563;SDS011;3823;53.586;10.040;2023-12-29T03:07:16;10.55;;;2.08;;
7563;SDS011;3823;53.586;10.040;2023-12-29T03:09:41;6.68;;;2.53;;
7563;SDS011;3823;53.586;10.040;2023-12-29T03:12:07;5.07;;;2.00;;
7563;SDS011;3823;53.586;10.040;2023-12-29T03:14:33;4.22;;;1.90;;
7563;SDS011;3823;53.586;10.040;2023-12-29T03:16:58;5.03;;;2.45;;
7563;SDS011;3823;53.586;10.040;2023-12-29T03:19:24;4.38;;;2.13;;
7563;SDS011;3823;53.586;10.040;2023-12-29T03:21:50;5.10;;;1.65;;
7563;SDS011;3823;53.586;10.040;2023-12-29T03:24:15;4.43;;;1.67;;
7563;SDS011;3823;53.586;10.040;2023-12-29T03:26:41;3.13;;;2.05;;
7563;SDS011;3823;53.586;10.040;2023-12-29T03:29:07;12.95;;;1.58;;
7563;SDS011;3823;53.586;10.040;2023-12-29T03:31:33;4.80;;;1.00;;
7563;SDS011;3823;53.586;10.040;2023-12-29T03:34:01;6.20;;;1.20;;
7563;SDS011;3823;53.586;10.040;2023-12-29T03:36:27;2.13;;;1.20;;
7563;SDS011;3823;53.586;10.040;2023-12-29T03:38:52;5.13;;;0.90;;
7563;SDS011;3823;53.586;10.040;2023-12-29T03:41:19;4.97;;;2.42;;
7563;SDS011;3823;53.586;10.040;2023-12-29T03:43:45;3.47;;;1.02;;
7563;SDS011;3823;53.586;10.040;2023-12-29T03:46:20;3.55;;;1.02;;
7563;SDS011;3823;53.586;10.040;2023-12-29T03:48:46;6.85;;;1.38;;
7563;SDS011;3823;53.586;10.040;2023-12-29T03:51:12;1.65;;;1.13;;
7563;SDS011;3823;53.586;10.040;2023-12-29T03:53:38;4.53;;;1.65;;
7563;SDS011;3823;53.586;10.040;2023-12-29T03:56:04;3.58;;;1.00;;
7563;SDS011;3823;53.586;10.040;2023-12-29T03:58:31;3.92;;;1.15;;
7563;SDS011;3823;53.586;10.040;2023-12-29T04:00:57;5.60;;;1.70;;
7563;SDS011;3823;53.586;10.040;2023-12-29T04:03:22;2.75;;;0.95;;
7563;SDS011;3823;53.586;10.040;2023-12-29T04:05:48;3.92;;;1.60;;
7563;SDS011;3823;53.586;10.040;2023-12-29T04:08:14;5.00;;;2.35;;
7563;SDS011;3823;53.586;10.040;2023-12-29T04:10:39;1.60;;;1.25;;
7563;SDS011;3823;53.586;10.040;2023-12-29T04:13:05;1.63;;;1.52;;
7563;SDS011;3823;53.586;10.040;2023-12-29T04:15:31;3.00;;;1.40;;
7563;SDS011;3823;53.586;10.040;2023-12-29T04:17:56;4.50;;;2.47;;
7563;SDS011;3823;53.586;10.040;2023-12-29T04:20:22;1.95;;;1.25;;
7563;SDS011;3823;53.586;10.040;2023-12-29T04:22:47;3.47;;;0.63;;
7563;SDS011;3823;53.586;10.040;2023-12-29T04:25:13;7.38;;;2.45;;
7563;SDS011;3823;53.586;10.040;2023-12-29T04:27:39;6.97;;;1.02;;
7563;SDS011;3823;53.586;10.040;2023-12-29T04:30:06;3.78;;;1.10;;
7563;SDS011;3823;53.586;10.040;2023-12-29T04:32:32;8.48;;;0.75;;
7563;SDS011;3823;53.586;10.040;2023-12-29T04:34:57;3.15;;;0.65;;
7563;SDS011;3823;53.586;10.040;2023-12-29T04:37:23;2.80;;;0.93;;
7563;SDS011;3823;53.586;10.040;2023-12-29T04:39:48;3.38;;;0.75;;
7563;SDS011;3823;53.586;10.040;2023-12-29T04:42:14;7.82;;;0.63;;
7563;SDS011;3823;53.586;10.040;2023-12-29T04:44:40;2.42;;;0.68;;
7563;SDS011;3823;53.586;10.040;2023-12-29T04:47:05;2.65;;;0.55;;
7563;SDS011;3823;53.586;10.040;2023-12-29T04:49:31;7.00;;;1.10;;
7563;SDS011;3823;53.586;10.040;2023-12-29T04:51:56;6.38;;;0.90;;
7563;SDS011;3823;53.586;10.040;2023-12-29T04:54:23;1.40;;;0.50;;
7563;SDS011;3823;53.586;10.040;2023-12-29T04:56:49;1.70;;;0.63;;
7563;SDS011;3823;53.586;10.040;2023-12-29T04:59:15;6.35;;;1.15;;
7563;SDS011;3823;53.586;10.040;2023-12-29T05:01:41;5.13;;;0.60;;
7563;SDS011;3823;53.586;10.040;2023-12-29T05:04:06;3.45;;;1.00;;
7563;SDS011;3823;53.586;10.040;2023-12-29T05:06:32;4.15;;;1.08;;
7563;SDS011;3823;53.586;10.040;2023-12-29T05:08:58;3.28;;;0.80;;
7563;SDS011;3823;53.586;10.040;2023-12-29T05:11:23;2.05;;;0.80;;
7563;SDS011;3823;53.586;10.040;2023-12-29T05:13:49;2.13;;;1.15;;
7563;SDS011;3823;53.586;10.040;2023-12-29T05:16:15;3.35;;;1.10;;
7563;SDS011;3823;53.586;10.040;2023-12-29T05:18:40;3.60;;;1.20;;
7563;SDS011;3823;53.586;10.040;2023-12-29T05:21:06;1.95;;;0.80;;
7563;SDS011;3823;53.586;10.040;2023-12-29T05:23:45;5.85;;;0.95;;
7563;SDS011;3823;53.586;10.040;2023-12-29T05:26:12;7.55;;;0.90;;
7563;SDS011;3823;53.586;10.040;2023-12-29T05:28:38;1.70;;;0.90;;
7563;SDS011;3823;53.586;10.040;2023-12-29T05:31:03;6.63;;;1.67;;
7563;SDS011;3823;53.586;10.040;2023-12-29T05:33:30;2.78;;;1.17;;
7563;SDS011;3823;53.586;10.040;2023-12-29T05:35:56;4.88;;;0.90;;
7563;SDS011;3823;53.586;10.040;2023-12-29T05:38:22;1.90;;;1.17;;
7563;SDS011;3823;53.586;10.040;2023-12-29T05:40:47;3.90;;;1.00;;
7563;SDS011;3823;53.586;10.040;2023-12-29T05:43:14;4.57;;;1.00;;
7563;SDS011;3823;53.586;10.040;2023-12-29T05:45:40;1.77;;;0.68;;
7563;SDS011;3823;53.586;10.040;2023-12-29T05:48:06;2.15;;;0.80;;
7563;SDS011;3823;53.586;10.040;2023-12-29T05:50:32;3.85;;;1.40;;
7563;SDS011;3823;53.586;10.040;2023-12-29T05:52:57;5.05;;;1.27;;
7563;SDS011;3823;53.586;10.040;2023-12-29T05:55:23;3.10;;;0.80;;
7563;SDS011;3823;53.586;10.040;2023-12-29T05:57:48;6.88;;;2.10;;
7563;SDS011;3823;53.586;10.040;2023-12-29T06:00:14;4.03;;;1.55;;
7563;SDS011;3823;53.586;10.040;2023-12-29T06:02:41;5.60;;;1.05;;
7563;SDS011;3823;53.586;10.040;2023-12-29T06:05:07;4.10;;;1.02;;
7563;SDS011;3823;53.586;10.040;2023-12-29T06:07:33;6.85;;;1.45;;
7563;SDS011;3823;53.586;10.040;2023-12-29T06:09:59;2.85;;;1.05;;
7563;SDS011;3823;53.586;10.040;2023-12-29T06:12:25;2.55;;;1.23;;
7563;SDS011;3823;53.586;10.040;2023-12-29T06:14:50;1.58;;;0.77;;
7563;SDS011;3823;53.586;10.040;2023-12-29T06:17:16;9.32;;;1.90;;
7563;SDS011;3823;53.586;10.040;2023-12-29T06:19:41;8.00;;;1.35;;
7563;SDS011;3823;53.586;10.040;2023-12-29T06:22:07;5.07;;;1.67;;
7563;SDS011;3823;53.586;10.040;2023-12-29T06:24:36;3.92;;;1.13;;
7563;SDS011;3823;53.586;10.040;2023-12-29T06:27:02;5.53;;;1.60;;
7563;SDS011;3823;53.586;10.040;2023-12-29T06:29:28;5.30;;;1.48;;
7563;SDS011;3823;53.586;10.040;2023-12-29T06:31:54;3.70;;;1.50;;
7563;SDS011;3823;53.586;10.040;2023-12-29T06:34:20;2.47;;;1.02;;
7563;SDS011;3823;53.586;10.040;2023-12-29T06:36:45;4.97;;;1.23;;
7563;SDS011;3823;53.586;10.040;2023-12-29T06:39:11;1.88;;;1.45;;
7563;SDS011;3823;53.586;10.040;2023-12-29T06:41:37;6.32;;;1.35;;
7563;SDS011;3823;53.586;10.040;2023-12-29T06:44:02;4.95;;;1.75;;
7563;SDS011;3823;53.586;10.040;2023-12-29T06:46:28;3.45;;;2.20;;
7563;SDS011;3823;53.586;10.040;2023-12-29T06:48:54;10.85;;;1.75;;
7563;SDS011;3823;53.586;10.040;2023-12-29T06:51:19;8.43;;;2.50;;
7563;SDS011;3823;53.586;10.040;2023-12-29T06:53:47;3.83;;;2.10;;
7563;SDS011;3823;53.586;10.040;2023-12-29T06:56:16;7.50;;;2.28;;
7563;SDS011;3823;53.586;10.040;2023-12-29T06:58:43;7.47;;;2.95;;
7563;SDS011;3823;53.586;10.040;2023-12-29T07:01:09;8.55;;;2.55;;
7563;SDS011;3823;53.586;10.040;2023-12-29T07:03:34;10.55;;;3.65;;
7563;SDS011;3823;53.586;10.040;2023-12-29T07:06:00;8.60;;;2.60;;
7563;SDS011;3823;53.586;10.040;2023-12-29T07:08:27;7.35;;;2.47;;
7563;SDS011;3823;53.586;10.040;2023-12-29T07:10:52;9.63;;;2.20;;
7563;SDS011;3823;53.586;10.040;2023-12-29T07:13:18;5.30;;;2.13;;
7563;SDS011;3823;53.586;10.040;2023-12-29T07:15:47;13.48;;;2.35;;
7563;SDS011;3823;53.586;10.040;2023-12-29T07:18:13;14.70;;;3.10;;
7563;SDS011;3823;53.586;10.040;2023-12-29T07:20:39;9.88;;;2.88;;
7563;SDS011;3823;53.586;10.040;2023-12-29T07:23:05;5.97;;;1.83;;
7563;SDS011;3823;53.586;10.040;2023-12-29T07:25:31;5.68;;;2.00;;
7563;SDS011;3823;53.586;10.040;2023-12-29T07:27:56;5.97;;;2.00;;
7563;SDS011;3823;53.586;10.040;2023-12-29T07:30:22;10.52;;;2.60;;
7563;SDS011;3823;53.586;10.040;2023-12-29T07:32:48;11.48;;;2.90;;
7563;SDS011;3823;53.586;10.040;2023-12-29T07:35:13;11.60;;;4.72;;
7563;SDS011;3823;53.586;10.040;2023-12-29T07:37:44;12.82;;;2.03;;
7563;SDS011;3823;53.586;10.040;2023-12-29T07:40:10;4.40;;;2.13;;
7563;SDS011;3823;53.586;10.040;2023-12-29T07:42:36;5.60;;;2.42;;
7563;SDS011;3823;53.586;10.040;2023-12-29T07:45:02;18.20;;;2.97;;
7563;SDS011;3823;53.586;10.040;2023-12-29T07:47:28;11.73;;;2.83;;
7563;SDS011;3823;53.586;10.040;2023-12-29T07:49:54;12.77;;;2.50;;
7563;SDS011;3823;53.586;10.040;2023-12-29T07:52:19;8.43;;;2.28;;
7563;SDS011;3823;53.586;10.040;2023-12-29T07:54:45;13.13;;;2.95;;
7563;SDS011;3823;53.586;10.040;2023-12-29T07:57:10;17.08;;;3.10;;
7563;SDS011;3823;53.586;10.040;2023-12-29T07:59:36;12.50;;;2.40;;
7563;SDS011;3823;53.586;10.040;2023-12-29T08:02:02;12.13;;;2.58;;
7563;SDS011;3823;53.586;10.040;2023-12-29T08:04:27;7.97;;;2.70;;
7563;SDS011;3823;53.586;10.040;2023-12-29T08:06:53;9.65;;;2.40;;
7563;SDS011;3823;53.586;10.040;2023-12-29T08:09:18;11.55;;;2.00;;
7563;SDS011;3823;53.586;10.040;2023-12-29T08:11:45;6.00;;;2.22;;
7563;SDS011;3823;53.586;10.040;2023-12-29T08:14:10;15.18;;;3.08;;
7563;SDS011;3823;53.586;10.040;2023-12-29T08:16:39;7.05;;;3.42;;
7563;SDS011;3823;53.586;10.040;2023-12-29T08:19:06;15.63;;;2.40;;
7563;SDS011;3823;53.586;10.040;2023-12-29T08:21:32;10.02;;;2.60;;
7563;SDS011;3823;53.586;10.040;2023-12-29T08:23:58;10.95;;;3.63;;
7563;SDS011;3823;53.586;10.040;2023-12-29T08:26:23;7.75;;;3.30;;
7563;SDS011;3823;53.586;10.040;2023-12-29T08:28:49;10.57;;;2.42;;
7563;SDS011;3823;53.586;10.040;2023-12-29T08:31:15;11.45;;;2.45;;
7563;SDS011;3823;53.586;10.040;2023-12-29T08:33:41;12.85;;;2.22;;
7563;SDS011;3823;53.586;10.040;2023-12-29T08:36:07;4.80;;;1.70;;
7563;SDS011;3823;53.586;10.040;2023-12-29T08:38:32;14.38;;;2.60;;
7563;SDS011;3823;53.586;10.040;2023-12-29T08:40:59;9.88;;;2.78;;
7563;SDS011;3823;53.586;10.040;2023-12-29T08:43:25;13.68;;;2.88;;
7563;SDS011;3823;53.586;10.040;2023-12-29T08:45:51;10.55;;;2.20;;
7563;SDS011;3823;53.586;10.040;2023-12-29T08:48:17;7.25;;;2.53;;
7563;SDS011;3823;53.586;10.040;2023-12-29T08:50:42;15.32;;;2.83;;
7563;SDS011;3823;53.586;10.040;2023-12-29T08:53:08;6.85;;;2.10;;
7563;SDS011;3823;53.586;10.040;2023-12-29T08:55:34;8.18;;;2.20;;
7563;SDS011;3823;53.586;10.040;2023-12-29T08:58:00;6.88;;;2.03;;
7563;SDS011;3823;53.586;10.040;2023-12-29T09:00:26;6.00;;;1.95;;
7563;SDS011;3823;53.586;10.040;2023-12-29T09:02:52;10.63;;;2.95;;
7563;SDS011;3823;53.586;10.040;2023-12-29T09:05:17;8.98;;;3.30;;
7563;SDS011;3823;53.586;10.040;2023-12-29T09:07:43;9.43;;;2.10;;
7563;SDS011;3823;53.586;10.040;2023-12-29T09:10:09;9.55;;;3.05;;
7563;SDS011;3823;53.586;10.040;2023-12-29T09:12:37;9.07;;;2.35;;
7563;SDS011;3823;53.586;10.040;2023-12-29T09:15:04;7.50;;;2.00;;
7563;SDS011;3823;53.586;10.040;2023-12-29T09:17:30;9.80;;;2.40;;
7563;SDS011;3823;53.586;10.040;2023-12-29T09:19:56;4.53;;;1.90;;
7563;SDS011;3823;53.586;10.040;2023-12-29T09:22:22;4.47;;;1.52;;
7563;SDS011;3823;53.586;10.040;2023-12-29T09:24:47;4.70;;;2.60;;
7563;SDS011;3823;53.586;10.040;2023-12-29T09:27:13;2.35;;;1.48;;
7563;SDS011;3823;53.586;10.040;2023-12-29T09:29:39;2.28;;;1.42;;
7563;SDS011;3823;53.586;10.040;2023-12-29T09:32:05;3.75;;;1.08;;
7563;SDS011;3823;53.586;10.040;2023-12-29T09:34:31;5.05;;;1.30;;
7563;SDS011;3823;53.586;10.040;2023-12-29T09:36:57;6.88;;;1.60;;
7563;SDS011;3823;53.586;10.040;2023-12-29T09:39:22;5.13;;;1.58;;
7563;SDS011;3823;53.586;10.040;2023-12-29T09:41:48;6.38;;;1.83;;
7563;SDS011;3823;53.586;10.040;2023-12-29T09:44:16;6.03;;;1.40;;
7563;SDS011;3823;53.586;10.040;2023-12-29T09:46:49;6.90;;;1.95;;
7563;SDS011;3823;53.586;10.040;2023-12-29T09:49:18;13.75;;;2.25;;
7563;SDS011;3823;53.586;10.040;2023-12-29T09:51:45;6.20;;;2.40;;
7563;SDS011;3823;53.586;10.040;2023-12-29T09:54:11;5.97;;;1.92;;
7563;SDS011;3823;53.586;10.040;2023-12-29T09:56:38;3.58;;;1.60;;
7563;SDS011;3823;53.586;10.040;2023-12-29T09:59:04;6.28;;;2.72;;
7563;SDS011;3823;53.586;10.040;2023-12-29T10:01:31;4.28;;;2.58;;
7563;SDS011;3823;53.586;10.040;2023-12-29T10:03:58;14.07;;;4.28;;
7563;SDS011;3823;53.586;10.040;2023-12-29T10:06:24;7.93;;;2.25;;
7563;SDS011;3823;53.586;10.040;2023-12-29T10:08:51;9.95;;;2.88;;
7563;SDS011;3823;53.586;10.040;2023-12-29T10:11:18;14.80;;;2.70;;
7563;SDS011;3823;53.586;10.040;2023-12-29T10:13:53;10.48;;;2.60;;
7563;SDS011;3823;53.586;10.040;2023-12-29T10:16:32;9.13;;;1.92;;
7563;SDS011;3823;53.586;10.040;2023-12-29T10:22:01;10.45;;;2.10;;
7563;SDS011;3823;53.586;10.040;2023-12-29T10:24:33;6.72;;;2.45;;
7563;SDS011;3823;53.586;10.040;2023-12-29T10:26:59;9.52;;;2.50;;
7563;SDS011;3823;53.586;10.040;2023-12-29T10:29:27;9.27;;;2.72;;
7563;SDS011;3823;53.586;10.040;2023-12-29T10:31:52;4.35;;;1.95;;
7563;SDS011;3823;53.586;10.040;2023-12-29T10:34:19;8.63;;;1.95;;
7563;SDS011;3823;53.586;10.040;2023-12-29T10:36:49;4.50;;;1.90;;
7563;SDS011;3823;53.586;10.040;2023-12-29T10:39:15;8.05;;;1.45;;
7563;SDS011;3823;53.586;10.040;2023-12-29T10:41:40;13.45;;;2.30;;
7563;SDS011;3823;53.586;10.040;2023-12-29T10:44:06;8.18;;;2.53;;
7563;SDS011;3823;53.586;10.040;2023-12-29T10:46:33;11.80;;;2.17;;
7563;SDS011;3823;53.586;10.040;2023-12-29T10:49:06;6.50;;;1.77;;
7563;SDS011;3823;53.586;10.040;2023-12-29T10:51:35;9.00;;;2.78;;
7563;SDS011;3823;53.586;10.040;2023-12-29T10:54:02;15.82;;;3.20;;
7563;SDS011;3823;53.586;10.040;2023-12-29T10:56:28;13.45;;;2.95;;
7563;SDS011;3823;53.586;10.040;2023-12-29T10:59:01;7.40;;;2.38;;
7563;SDS011;3823;53.586;10.040;2023-12-29T11:01:29;10.38;;;2.35;;
7563;SDS011;3823;53.586;10.040;2023-12-29T11:04:02;10.35;;;2.47;;
7563;SDS011;3823;53.586;10.040;2023-12-29T11:06:29;6.43;;;2.10;;
7563;SDS011;3823;53.586;10.040;2023-12-29T11:09:04;8.20;;;2.22;;
7563;SDS011;3823;53.586;10.040;2023-12-29T11:11:30;6.75;;;2.17;;
7563;SDS011;3823;53.586;10.040;2023-12-29T11:13:57;10.95;;;4.10;;
7563;SDS011;3823;53.586;10.040;2023-12-29T11:16:23;9.13;;;2.33;;
7563;SDS011;3823;53.586;10.040;2023-12-29T11:18:50;10.85;;;3.05;;
7563;SDS011;3823;53.586;10.040;2023-12-29T11:21:16;9.98;;;2.80;;
7563;SDS011;3823;53.586;10.040;2023-12-29T11:23:42;11.50;;;3.13;;
7563;SDS011;3823;53.586;10.040;2023-12-29T11:26:08;10.65;;;2.78;;
7563;SDS011;3823;53.586;10.040;2023-12-29T11:28:34;6.38;;;2.42;;
7563;SDS011;3823;53.586;10.040;2023-12-29T11:31:00;18.42;;;3.58;;
7563;SDS011;3823;53.586;10.040;2023-12-29T11:33:34;5.18;;;1.80;;
7563;SDS011;3823;53.586;10.040;2023-12-29T11:36:10;12.63;;;2.60;;
7563;SDS011;3823;53.586;10.040;2023-12-29T11:43:57;11.63;;;2.17;;
7563;SDS011;3823;53.586;10.040;2023-12-29T11:46:32;6.85;;;1.88;;
7563;SDS011;3823;53.586;10.040;2023-12-29T11:48:59;7.85;;;2.33;;
7563;SDS011;3823;53.586;10.040;2023-12-29T11:54:02;4.88;;;2.38;;
7563;SDS011;3823;53.586;10.040;2023-12-29T11:56:33;12.52;;;3.30;;
7563;SDS011;3823;53.586;10.040;2023-12-29T12:01:43;2.88;;;1.58;;
7563;SDS011;3823;53.586;10.040;2023-12-29T12:07:04;5.45;;;1.85;;
7563;SDS011;3823;53.586;10.040;2023-12-29T12:09:31;5.70;;;1.98;;
7563;SDS011;3823;53.586;10.040;2023-12-29T12:11:59;4.43;;;1.88;;
7563;SDS011;3823;53.586;10.040;2023-12-29T12:17:32;4.03;;;2.33;;
7563;SDS011;3823;53.586;10.040;2023-12-29T12:22:34;5.22;;;1.83;;
7563;SDS011;3823;53.586;10.040;2023-12-29T12:25:01;7.80;;;2.28;;
7563;SDS011;3823;53.586;10.040;2023-12-29T12:27:28;6.50;;;2.33;;
7563;SDS011;3823;53.586;10.040;2023-12-29T12:29:57;5.95;;;1.75;;
7563;SDS011;3823;53.586;10.040;2023-12-29T12:32:25;5.32;;;1.70;;
7563;SDS011;3823;53.586;10.040;2023-12-29T12:34:51;6.03;;;2.05;;
7563;SDS011;3823;53.586;10.040;2023-12-29T12:37:21;4.10;;;2.67;;
7563;SDS011;3823;53.586;10.040;2023-12-29T12:39:56;4.40;;;1.77;;
7563;SDS011;3823;53.586;10.040;2023-12-29T12:42:22;3.63;;;1.55;;
7563;SDS011;3823;53.586;10.040;2023-12-29T12:44:49;8.23;;;1.70;;
7563;SDS011;3823;53.586;10.040;2023-12-29T12:47:23;8.32;;;2.00;;
7563;SDS011;3823;53.586;10.040;2023-12-29T12:49:57;12.57;;;2.42;;
7563;SDS011;3823;53.586;10.040;2023-12-29T12:52:24;9.57;;;1.75;;
7563;SDS011;3823;53.586;10.040;2023-12-29T12:54:50;5.43;;;2.38;;
7563;SDS011;3823;53.586;10.040;2023-12-29T12:57:19;5.13;;;1.65;;
7563;SDS011;3823;53.586;10.040;2023-12-29T12:59:45;6.82;;;1.25;;
7563;SDS011;3823;53.586;10.040;2023-12-29T13:02:12;6.55;;;1.85;;
7563;SDS011;3823;53.586;10.040;2023-12-29T13:04:39;8.85;;;1.48;;
7563;SDS011;3823;53.586;10.040;2023-12-29T13:07:06;8.82;;;2.13;;
7563;SDS011;3823;53.586;10.040;2023-12-29T13:09:34;7.22;;;1.85;;
7563;SDS011;3823;53.586;10.040;2023-12-29T13:12:10;6.82;;;1.45;;
7563;SDS011;3823;53.586;10.040;2023-12-29T13:14:36;2.80;;;1.77;;
7563;SDS011;3823;53.586;10.040;2023-12-29T13:17:05;3.20;;;1.90;;
7563;SDS011;3823;53.586;10.040;2023-12-29T13:19:32;8.20;;;1.58;;
7563;SDS011;3823;53.586;10.040;2023-12-29T13:21:59;2.72;;;1.48;;
7563;SDS011;3823;53.586;10.040;2023-12-29T13:24:25;2.95;;;1.58;;
7563;SDS011;3823;53.586;10.040;2023-12-29T13:26:52;8.75;;;2.08;;
7563;SDS011;3823;53.586;10.040;2023-12-29T13:29:21;7.38;;;2.15;;
7563;SDS011;3823;53.586;10.040;2023-12-29T13:31:50;3.47;;;2.03;;
7563;SDS011;3823;53.586;10.040;2023-12-29T13:34:23;3.17;;;1.77;;
7563;SDS011;3823;53.586;10.040;2023-12-29T13:37:04;5.28;;;1.67;;
7563;SDS011;3823;53.586;10.040;2023-12-29T13:39:40;14.32;;;2.33;;
7563;SDS011;3823;53.586;10.040;2023-12-29T13:42:09;3.83;;;1.77;;
7563;SDS011;3823;53.586;10.040;2023-12-29T13:44:38;4.55;;;2.25;;
7563;SDS011;3823;53.586;10.040;2023-12-29T13:47:06;6.50;;;2.03;;
7563;SDS011;3823;53.586;10.040;2023-12-29T13:49:32;5.03;;;2.35;;
7563;SDS011;3823;53.586;10.040;2023-12-29T13:52:01;6.22;;;1.77;;
7563;SDS011;3823;53.586;10.040;2023-12-29T13:54:28;4.40;;;2.25;;
7563;SDS011;3823;53.586;10.040;2023-12-29T13:56:54;8.70;;;2.42;;
7563;SDS011;3823;53.586;10.040;2023-12-29T13:59:29;4.05;;;1.92;;
7563;SDS011;3823;53.586;10.040;2023-12-29T14:01:58;8.95;;;2.53;;
7563;SDS011;3823;53.586;10.040;2023-12-29T14:04:24;4.30;;;1.90;;
7563;SDS011;3823;53.586;10.040;2023-12-29T14:06:51;2.83;;;1.83;;
7563;SDS011;3823;53.586;10.040;2023-12-29T14:09:20;6.28;;;2.78;;
7563;SDS011;3823;53.586;10.040;2023-12-29T14:11:46;7.85;;;2.13;;
7563;SDS011;3823;53.586;10.040;2023-12-29T14:14:13;8.93;;;1.92;;
7563;SDS011;3823;53.586;10.040;2023-12-29T14:16:39;3.92;;;2.75;;
7563;SDS011;3823;53.586;10.040;2023-12-29T14:19:05;11.73;;;2.08;;
7563;SDS011;3823;53.586;10.040;2023-12-29T14:21:31;9.70;;;2.45;;
7563;SDS011;3823;53.586;10.040;2023-12-29T14:23:59;3.75;;;1.70;;
7563;SDS011;3823;53.586;10.040;2023-12-29T14:26:27;7.00;;;2.28;;
7563;SDS011;3823;53.586;10.040;2023-12-29T14:29:07;6.40;;;2.05;;
7563;SDS011;3823;53.586;10.040;2023-12-29T14:31:35;6.25;;;1.58;;
7563;SDS011;3823;53.586;10.040;2023-12-29T14:34:05;15.45;;;2.70;;
7563;SDS011;3823;53.586;10.040;2023-12-29T14:36:32;7.97;;;1.70;;
7563;SDS011;3823;53.586;10.040;2023-12-29T14:38:58;7.43;;;2.28;;
7563;SDS011;3823;53.586;10.040;2023-12-29T14:41:24;7.25;;;2.78;;
7563;SDS011;3823;53.586;10.040;2023-12-29T14:43:50;7.45;;;1.88;;
7563;SDS011;3823;53.586;10.040;2023-12-29T14:46:18;4.25;;;1.83;;
7563;SDS011;3823;53.586;10.040;2023-12-29T14:48:44;5.13;;;2.15;;
7563;SDS011;3823;53.586;10.040;2023-12-29T14:51:10;13.25;;;3.28;;
7563;SDS011;3823;53.586;10.040;2023-12-29T14:53:36;11.18;;;2.80;;
7563;SDS011;3823;53.586;10.040;2023-12-29T14:56:02;10.52;;;3.15;;
7563;SDS011;3823;53.586;10.040;2023-12-29T14:58:28;7.28;;;2.72;;
7563;SDS011;3823;53.586;10.040;2023-12-29T15:00:55;8.73;;;2.03;;
7563;SDS011;3823;53.586;10.040;2023-12-29T15:03:20;7.05;;;2.45;;
7563;SDS011;3823;53.586;10.040;2023-12-29T15:05:47;13.18;;;2.75;;
7563;SDS011;3823;53.586;10.040;2023-12-29T15:08:13;8.38;;;3.35;;
7563;SDS011;3823;53.586;10.040;2023-12-29T15:10:39;4.60;;;1.98;;
7563;SDS011;3823;53.586;10.040;2023-12-29T15:13:04;6.75;;;2.03;;
7563;SDS011;3823;53.586;10.040;2023-12-29T15:15:32;9.57;;;2.00;;
7563;SDS011;3823;53.586;10.040;2023-12-29T15:17:58;13.75;;;2.20;;
7563;SDS011;3823;53.586;10.040;2023-12-29T15:20:24;10.90;;;2.58;;
7563;SDS011;3823;53.586;10.040;2023-12-29T15:22:50;7.90;;;2.13;;